createdAt,value
2018-05-10T00:00:14.690Z,24.9
2018-05-10T00:01:05.331Z,25
2018-05-10T00:01:55.381Z,25
2018-05-10T00:02:45.183Z,25
2018-05-10T00:03:35.505Z,25
2018-05-10T00:04:25.662Z,25
2018-05-10T00:05:15.632Z,25
2018-05-10T00:06:05.421Z,25
2018-05-10T00:06:55.783Z,25
2018-05-10T00:07:45.695Z,24.9
2018-05-10T00:08:35.609Z,24.9
2018-05-10T00:09:40.859Z,25
2018-05-10T00:10:16.135Z,24.9
2018-05-10T00:11:05.808Z,25
2018-05-10T00:11:56.153Z,24.9
2018-05-10T00:12:45.671Z,24.9
2018-05-10T00:13:35.732Z,24.9
2018-05-10T00:14:25.792Z,24.9
2018-05-10T00:15:16.406Z,24.9
2018-05-10T00:16:05.643Z,24.9
2018-05-10T00:16:56.542Z,24.9
2018-05-10T00:17:46.323Z,25
2018-05-10T00:18:36.407Z,24.9
2018-05-10T00:19:26.181Z,24.9
2018-05-10T00:20:16.816Z,24.9
2018-05-10T00:21:06.862Z,24.9
2018-05-10T00:21:56.933Z,24.9
2018-05-10T00:22:46.999Z,24.9
2018-05-10T00:23:37.047Z,24.9
2018-05-10T00:24:27.863Z,24.9
2018-05-10T00:25:17.179Z,24.9
2018-05-10T00:26:06.979Z,24.9
2018-05-10T00:26:57.309Z,24.9
2018-05-10T00:27:47.074Z,24.9
2018-05-10T00:28:37.145Z,24.9
2018-05-10T00:29:27.257Z,24.9
2018-05-10T00:30:17.193Z,24.9
2018-05-10T00:31:07.542Z,24.9
2018-05-10T00:31:57.676Z,24.9
2018-05-10T00:32:47.469Z,24.9
2018-05-10T00:33:37.223Z,24.9
2018-05-10T00:34:27.862Z,24.9
2018-05-10T00:35:17.675Z,24.9
2018-05-10T00:36:08.416Z,24.9
2018-05-10T00:36:57.806Z,24.9
2018-05-10T00:37:48.123Z,24.9
2018-05-10T00:38:37.942Z,24.9
2018-05-10T00:39:28.304Z,24.9
2018-05-10T00:40:18.295Z,24.9
2018-05-10T00:41:08.423Z,24.9
2018-05-10T00:41:58.476Z,24.9
2018-05-10T00:43:51.989Z,24.9
2018-05-10T00:44:02.011Z,24.9
2018-05-10T00:44:52.842Z,24.9
2018-05-10T00:45:42.987Z,24.9
2018-05-10T00:46:33.187Z,24.9
2018-05-10T00:47:22.565Z,24.9
2018-05-10T00:48:13.204Z,24.9
2018-05-10T00:49:03.263Z,24.9
2018-05-10T00:49:52.723Z,24.9
2018-05-10T00:50:43.094Z,24.9
2018-05-10T00:51:33.139Z,24.9
2018-05-10T00:52:23.474Z,24.9
2018-05-10T00:53:13.196Z,24.9
2018-05-10T00:54:03.361Z,24.9
2018-05-10T00:54:53.399Z,24.9
2018-05-10T00:55:43.768Z,24.9
2018-05-10T00:56:33.837Z,24.9
2018-05-10T00:57:23.320Z,24.9
2018-05-10T00:58:13.677Z,24.8
2018-05-10T00:59:04.079Z,24.9
2018-05-10T00:59:53.813Z,24.8
2018-05-10T01:00:43.607Z,24.8
2018-05-10T01:01:34.464Z,24.8
2018-05-10T01:02:23.982Z,24.8
2018-05-10T01:03:13.589Z,24.8
2018-05-10T01:04:04.026Z,24.8
2018-05-10T01:04:53.913Z,24.8
2018-05-10T01:05:43.689Z,24.8
2018-05-10T01:06:33.754Z,24.8
2018-05-10T01:07:24.121Z,24.8
2018-05-10T01:08:14.444Z,24.8
2018-05-10T01:09:04.213Z,24.8
2018-05-10T01:09:54.831Z,24.8
2018-05-10T01:10:44.071Z,24.8
2018-05-10T01:11:34.196Z,24.8
2018-05-10T01:12:24.221Z,24.8
2018-05-10T01:13:14.730Z,24.8
2018-05-10T01:14:04.321Z,24.8
2018-05-10T01:14:55.026Z,24.8
2018-05-10T01:15:44.423Z,24.8
2018-05-10T01:16:34.839Z,24.8
2018-05-10T01:17:25.148Z,24.8
2018-05-10T01:18:14.635Z,24.8
2018-05-10T01:19:04.968Z,24.8
2018-05-10T01:19:55.136Z,24.8
2018-05-10T01:20:45.367Z,24.8
2018-05-10T01:21:35.528Z,24.8
2018-05-10T01:22:25.511Z,24.8
2018-05-10T01:23:14.735Z,24.8
2018-05-10T01:24:05.631Z,24.8
2018-05-10T01:24:55.720Z,24.8
2018-05-10T01:25:46.047Z,24.8
2018-05-10T01:26:35.571Z,24.8
2018-05-10T01:27:25.912Z,24.8
2018-05-10T01:28:15.933Z,24.8
2018-05-10T01:29:06.313Z,24.8
2018-05-10T01:29:55.790Z,24.8
2018-05-10T01:30:46.458Z,24.8
2018-05-10T01:31:36.475Z,24.8
2018-05-10T01:32:26.296Z,24.8
2018-05-10T20:10:30.104Z,24.1
2018-05-10T20:11:21.024Z,24.1
2018-05-10T20:12:11.084Z,24.1
2018-05-10T20:13:00.847Z,24.1
2018-05-10T20:13:51.981Z,24.1
2018-05-10T20:14:40.965Z,24.1
2018-05-10T20:15:31.328Z,24.1
2018-05-10T20:16:21.385Z,24.1
2018-05-10T20:17:11.184Z,24.1
2018-05-10T20:18:01.553Z,24.1
2018-05-10T20:18:50.730Z,24.1
2018-05-10T20:19:41.081Z,24.1
2018-05-10T20:20:30.368Z,24.1
2018-05-10T20:21:21.782Z,24.1
2018-05-10T20:22:11.540Z,24.1
2018-05-10T20:23:01.353Z,24.1
2018-05-10T20:23:51.981Z,24.1
2018-05-10T20:24:41.324Z,24.1
2018-05-10T20:25:31.553Z,24.1
2018-05-10T20:26:21.583Z,24.1
2018-05-10T20:27:11.170Z,24.1
2018-05-10T20:28:01.531Z,24.1
2018-05-10T20:28:51.222Z,24.1
2018-05-10T20:29:41.676Z,24.1
2018-05-10T20:30:31.713Z,24.1
2018-05-10T20:31:21.581Z,24.1
2018-05-10T20:32:12.491Z,24.1
2018-05-10T20:33:02.375Z,24.1
2018-05-10T20:33:52.191Z,24.1
2018-05-10T20:34:42.323Z,24.1
2018-05-10T20:35:32.271Z,24
2018-05-10T20:36:22.900Z,24.1
2018-05-10T20:37:12.780Z,24.1
2018-05-10T20:38:01.895Z,24
2018-05-10T20:38:52.540Z,24.1
2018-05-10T20:39:43.226Z,24
2018-05-10T20:40:32.397Z,24
2018-05-10T20:41:23.050Z,24.1
2018-05-10T20:42:12.995Z,24
2018-05-10T20:43:03.746Z,24
2018-05-10T20:43:52.933Z,24
2018-05-10T20:44:43.415Z,24
2018-05-10T20:45:33.344Z,24
2018-05-10T20:46:23.096Z,24
2018-05-10T20:47:13.466Z,24
2018-05-10T20:48:03.527Z,24
2018-05-10T20:48:53.887Z,23.9
2018-05-10T20:49:43.669Z,24
2018-05-10T20:50:33.980Z,24
2018-05-10T20:51:23.211Z,24
2018-05-10T20:52:13.830Z,23.9
2018-05-10T20:53:03.891Z,23.9
2018-05-10T20:53:53.548Z,23.9
2018-05-10T20:54:44.330Z,23.9
2018-05-10T20:55:34.416Z,23.9
2018-05-10T20:56:24.145Z,23.9
2018-05-10T20:57:13.940Z,23.9
2018-05-10T20:58:03.990Z,23.9
2018-05-10T20:58:53.956Z,23.9
2018-05-10T20:59:44.146Z,23.9
2018-05-10T21:00:33.969Z,23.9
2018-05-10T21:01:24.539Z,23.9
2018-05-10T21:02:14.083Z,23.9
2018-05-10T21:03:04.650Z,23.9
2018-05-10T21:03:54.330Z,23.9
2018-05-10T21:04:44.295Z,23.9
2018-05-10T21:05:34.929Z,23.9
2018-05-10T21:06:24.923Z,23.9
2018-05-10T21:07:14.278Z,23.9
2018-05-10T21:08:05.055Z,23.9
2018-05-10T21:08:55.110Z,23.9
2018-05-10T21:09:45.146Z,23.9
2018-05-10T21:10:35.262Z,23.9
2018-05-10T21:11:24.731Z,23.9
2018-05-10T21:12:15.345Z,23.9
2018-05-10T21:13:05.425Z,23.9
2018-05-10T21:13:55.752Z,23.9
2018-05-10T21:14:45.356Z,23.9
2018-05-10T21:15:35.617Z,23.9
2018-05-10T21:16:26.073Z,23.9
2018-05-10T21:17:16.012Z,23.9
2018-05-10T21:18:06.082Z,23.9
2018-05-10T21:18:56.155Z,23.9
2018-05-10T21:19:45.924Z,23.8
2018-05-10T21:20:35.999Z,23.9
2018-05-10T21:21:26.167Z,23.9
2018-05-10T21:22:16.097Z,23.8
2018-05-10T21:23:06.851Z,23.9
2018-05-10T21:23:56.246Z,23.8
2018-05-10T21:24:46.567Z,23.9
2018-05-10T21:25:36.085Z,23.8
2018-05-10T21:26:26.428Z,23.9
2018-05-10T21:27:16.494Z,23.8
2018-05-10T21:28:06.815Z,23.9
2018-05-10T21:28:56.611Z,23.8
2018-05-10T21:29:46.989Z,23.8
2018-05-10T21:30:36.454Z,23.9
2018-05-10T21:31:26.817Z,23.8
2018-05-10T21:32:17.137Z,23.8
2018-05-10T21:33:07.218Z,23.8
2018-05-10T21:33:57.553Z,23.8
2018-05-10T21:34:47.329Z,23.8
2018-05-10T21:35:37.104Z,23.8
2018-05-10T21:36:27.555Z,23.8
2018-05-10T21:37:17.530Z,23.8
2018-05-10T21:38:07.578Z,23.8
2018-05-10T21:38:57.657Z,23.8
2018-05-10T21:39:47.699Z,23.8
2018-05-10T21:40:37.505Z,23.8
2018-05-10T21:41:27.348Z,23.8
2018-05-10T21:42:17.911Z,23.8
2018-05-10T21:43:07.711Z,23.8
2018-05-10T21:43:57.732Z,23.8
2018-05-10T21:44:48.671Z,23.8
2018-05-10T21:45:38.157Z,23.8
2018-05-10T21:46:28.217Z,23.8
2018-05-10T21:47:18.303Z,23.8
2018-05-10T21:48:08.072Z,23.8
2018-05-10T21:48:58.135Z,23.8
2018-05-10T21:49:48.232Z,23.8
2018-05-10T21:50:37.685Z,23.8
2018-05-10T21:51:28.312Z,23.8
2018-05-10T21:52:18.677Z,23.8
2018-05-10T21:53:08.735Z,23.8
2018-05-10T21:53:57.976Z,23.8
2018-05-10T21:54:48.895Z,23.8
2018-05-10T21:55:38.623Z,23.8
2018-05-10T21:56:28.992Z,23.8
2018-05-10T21:57:18.512Z,23.8
2018-05-10T21:58:09.116Z,23.8
2018-05-10T21:58:58.929Z,23.8
2018-05-10T21:59:49.238Z,23.8
2018-05-10T22:00:39.302Z,23.8
2018-05-10T22:01:29.448Z,23.7
2018-05-10T22:02:19.401Z,23.8
2018-05-10T22:03:09.469Z,23.8
2018-05-10T22:03:59.577Z,23.8
2018-05-10T22:04:49.351Z,23.7
2018-05-10T22:05:39.415Z,23.8
2018-05-10T22:06:29.447Z,23.8
2018-05-10T22:07:19.548Z,23.7
2018-05-10T22:08:09.565Z,23.7
2018-05-10T22:09:00.154Z,23.7
2018-05-10T22:09:50.059Z,23.8
2018-05-10T22:10:39.766Z,23.7
2018-05-10T22:11:29.545Z,23.7
2018-05-10T22:12:19.709Z,23.7
2018-05-10T22:13:10.256Z,23.7
2018-05-10T22:14:00.026Z,23.7
2018-05-10T22:14:50.200Z,23.7
2018-05-10T22:15:40.479Z,23.7
2018-05-10T22:16:30.251Z,23.7
2018-05-10T22:17:20.589Z,23.7
2018-05-10T22:18:10.366Z,23.7
2018-05-10T22:19:00.727Z,23.7
2018-05-10T22:19:50.194Z,23.7
2018-05-10T22:20:40.632Z,23.7
2018-05-10T22:21:30.882Z,23.7
2018-05-10T22:22:20.941Z,23.7
2018-05-10T22:23:10.731Z,23.7
2018-05-10T22:24:01.067Z,23.7
2018-05-10T22:24:51.127Z,23.6
2018-05-10T22:25:41.188Z,23.6
2018-05-10T22:26:31.265Z,23.6
2018-05-10T22:27:20.754Z,23.7
2018-05-10T22:28:11.080Z,23.7
2018-05-10T22:29:00.879Z,23.6
2018-05-10T22:29:51.507Z,23.6
2018-05-10T22:30:41.577Z,23.6
2018-05-10T22:31:31.643Z,23.6
2018-05-10T22:32:21.725Z,23.7
2018-05-10T22:33:11.764Z,23.6
2018-05-10T22:34:01.545Z,23.6
2018-05-10T22:34:51.620Z,23.6
2018-05-10T22:35:41.962Z,23.7
2018-05-10T22:36:31.444Z,23.6
2018-05-10T22:37:22.091Z,23.6
2018-05-10T22:38:12.159Z,23.6
2018-05-10T22:39:01.940Z,23.6
2018-05-10T22:39:52.300Z,23.6
2018-05-10T22:40:42.065Z,23.6
2018-05-10T22:41:32.397Z,23.6
2018-05-10T22:42:22.180Z,23.6
2018-05-10T22:43:12.252Z,23.6
2018-05-10T22:44:02.312Z,23.6
2018-05-10T22:44:52.654Z,23.6
2018-05-10T22:45:42.730Z,23.6
2018-05-10T22:46:32.784Z,23.6
2018-05-10T22:47:21.998Z,23.6
2018-05-10T22:48:12.927Z,23.6
2018-05-10T22:49:02.992Z,23.6
2018-05-10T22:49:53.039Z,23.6
2018-05-10T22:50:43.125Z,23.6
2018-05-10T22:51:33.157Z,23.6
2018-05-10T22:52:22.966Z,23.6
2018-05-10T22:53:13.297Z,23.6
2018-05-10T22:54:03.071Z,23.6
2018-05-10T22:54:53.404Z,23.6
2018-05-10T22:55:43.528Z,23.6
2018-05-10T22:56:33.265Z,23.6
2018-05-10T22:57:23.626Z,23.6
2018-05-10T22:58:13.692Z,23.6
2018-05-10T22:59:03.454Z,23.6
2018-05-10T22:59:54.368Z,23.6
2018-05-10T23:00:43.865Z,23.6
2018-05-10T23:01:33.489Z,23.6
2018-05-10T23:02:23.996Z,23.6
2018-05-10T23:03:13.762Z,23.6
2018-05-10T23:04:04.133Z,23.6
2018-05-10T23:04:54.205Z,23.6
2018-05-10T23:05:44.233Z,23.6
2018-05-10T23:06:34.305Z,23.6
2018-05-10T23:07:24.089Z,23.6
2018-05-10T23:08:14.431Z,23.6
2018-05-10T23:09:04.487Z,23.6
2018-05-10T23:09:54.570Z,23.6
2018-05-10T23:10:44.056Z,23.6
2018-05-10T23:11:34.414Z,23.6
2018-05-10T23:12:24.738Z,23.6
2018-05-10T23:13:14.548Z,23.6
2018-05-10T23:14:04.861Z,23.6
2018-05-10T23:14:54.379Z,23.6
2018-05-10T23:15:44.721Z,23.6
2018-05-10T23:16:35.045Z,23.6
2018-05-10T23:17:25.118Z,23.6
2018-05-10T23:18:15.177Z,23.6
2018-05-10T23:19:05.001Z,23.5
2018-05-10T23:19:55.309Z,23.6
2018-05-10T23:20:45.080Z,23.6
2018-05-10T23:21:35.155Z,23.6
2018-05-10T23:22:25.228Z,23.6
2018-05-10T23:23:15.567Z,23.6
2018-05-10T23:24:05.371Z,23.6
2018-05-10T23:24:55.123Z,23.6
2018-05-10T23:25:45.861Z,23.6
2018-05-10T23:26:35.825Z,23.6
2018-05-10T23:27:25.877Z,23.6
2018-05-10T23:28:15.987Z,23.6
2018-05-10T23:29:05.466Z,23.5
2018-05-10T23:29:55.503Z,23.6
2018-05-10T23:30:45.841Z,23.5
2018-05-10T23:31:35.944Z,23.6
2018-05-10T23:32:25.976Z,23.5
2018-05-10T23:33:16.338Z,23.5
2018-05-10T23:34:06.375Z,23.5
2018-05-10T23:34:55.874Z,23.6
2018-05-10T23:35:46.239Z,23.5
2018-05-10T23:36:36.294Z,23.6
2018-05-10T23:37:26.084Z,23.5
2018-05-10T23:38:16.141Z,23.5
2018-05-10T23:39:06.757Z,23.5
2018-05-10T23:39:56.838Z,23.5
2018-05-10T23:40:46.871Z,23.5
2018-05-10T23:41:36.989Z,23.5
2018-05-10T23:42:27.038Z,23.5
2018-05-10T23:43:16.822Z,23.5
2018-05-10T23:44:07.156Z,23.5
2018-05-10T23:44:57.207Z,23.5
2018-05-10T23:45:47.271Z,23.5
2018-05-10T23:46:37.056Z,23.5
2018-05-10T23:47:27.110Z,23.5
2018-05-10T23:48:17.474Z,23.5
2018-05-10T23:49:07.264Z,23.5
2018-05-10T23:49:57.575Z,23.5
2018-05-10T23:50:47.380Z,23.5
2018-05-10T23:51:37.704Z,23.5
2018-05-10T23:52:27.213Z,23.5
2018-05-10T23:53:17.824Z,23.5
2018-05-10T23:54:07.638Z,23.5
2018-05-10T23:54:57.989Z,23.5
2018-05-10T23:55:48.032Z,23.5
2018-05-10T23:56:38.091Z,23.5
2018-05-10T23:57:28.145Z,23.5
2018-05-10T23:58:17.674Z,23.5
2018-05-10T23:59:07.997Z,23.4
2018-05-10T23:59:58.054Z,23.4
